Whale Point, California Weather observations

Data are for observation ending at time listed.
 Day   Time    Ave.   Ave.  Ave.  Vector   Max.   Stn.    Total    Solar   Ave.  
  of    of     Air    Rel.  Wind   Wind    Wind   Baro.  Precip.   Rad.    Soil  
Year   Day     Temp.  Hum.  Speed  Dir.    Gust   Pres.                    Temp. 
2014   (PST)    F      %     mph   deg.    mph     mb.     in.     W/m2     F   
------------------------------------------------------------------------------
 303    3:40   70.2    28    2.4   107      3.4   992.2    0.00       0    67.6
 303    3:50   70.9    26    1.4   110      3.6   992.2    0.00       0    67.6
 303    4:00   71.5    26    3.3    66      4.9   992.2    0.00       0    67.5
 303    4:10   71.2    25    2.1   102      4.8   992.2    0.00       0    67.5
 303    4:20   70.5    26    1.4   151      3.5   992.6    0.00       0    67.4
 303    4:30   69.7    27    1.6    22      3.1   992.6    0.00       0    67.4
 303    4:40   70.2    26    3.4    63      6.1   992.6    0.00       0    67.4
 303    4:50   70.5    25    3.9    77      5.7   992.6    0.00       0    67.3
 303    5:00   71.1    24    2.3   103      4.7   992.6    0.00       0    67.3
 303    5:10   70.1    26    1.4   111      3.7   992.9    0.00       0    67.2
 303    5:20   69.9    25    2.9    76      6.0   992.9    0.00       0    67.2
 303    5:30   69.2    27    2.9    78      8.1   992.9    0.00       0    67.2
 303    5:40   66.6    31    0.8   159      2.3   992.9    0.00       0    67.1
 303    5:50   64.2    36    0.8   359      1.9   992.9    0.00       0    67.1
 303    6:00   62.7    41    2.0   173      4.2   993.2    0.00       0    67.1
 303    6:10   62.2    43    2.9   155      5.9   993.2    0.00       0    67.0
 303    6:20   61.8    44    3.4    12      6.4   993.2    0.00       1    67.0
 303    6:30   63.1    38    4.7    25      7.2   993.2    0.00       4    67.0
 303    6:40   64.2    36    1.0    59      2.9   993.6    0.00      19    66.9
 303    6:50   63.5    38    1.9    53      5.4   993.6    0.00      39    66.9
 303    7:00   63.9    36    3.1    40      6.0   993.6    0.00      50    66.8
 303    7:10   65.7    32    2.9    86      6.5   993.6    0.00      63    66.8
 303    7:20   64.3    36    1.2   168      3.1   993.6    0.00      75    66.7
 303    7:30   63.0    44    1.1   203      2.6   993.9    0.00      89    66.7
 303    7:40   62.1    51    2.4    10      5.0   993.9    0.00     115    66.7
 303    7:50   63.6    42    1.9    53      4.1   993.9    0.00     120    66.6
 303    8:00   65.0    42    2.1   186      5.0   994.2    0.00     131    66.6
 303    8:10   64.3    50    3.1   176      6.6   994.2    0.00     197    66.5
 303    8:20   62.3    62    2.4   190      3.9   993.9    0.00     202    66.5
 303    8:30   63.3    56    3.0   172      6.8   993.9    0.00     223    66.5
 303    8:40   62.8    62    2.3   188      6.5   993.9    0.00     267    66.4
 303    8:50   62.7    61    2.5   205      6.4   994.2    0.00     284    66.4
 303    9:00   62.7    60    1.1   278      2.5   994.2    0.00     350    66.3
 303    9:10   63.2    58    3.0   213      6.9   993.9    0.00     245    66.3
 303    9:20   62.9    58    3.6   192     11.4   994.2    0.00     230    66.3
 303    9:30   63.2    56    3.1   194      7.0   994.2    0.00     252    66.3
 303    9:40   63.4    56    1.7   207      4.4   994.2    0.00     282    66.3
 303    9:50   63.4    58    2.9   217      5.1   994.2    0.00     474    66.3
 303   10:00   63.6    58    2.8   208      4.8   993.9    0.00     465    66.3
 303   10:10   64.1    56    3.6   186      6.0   993.9    0.00     380    66.2
 303   10:20   64.3    55    3.4   184      5.8   993.9    0.00     268    66.3
 303   10:30   63.2    60    3.7   204      6.0   994.2    0.00     281    66.3
 303   10:40   63.8    60    2.1   221      4.5   993.9    0.00     709    66.3
 303   10:50   64.8    56    3.8   224      6.4   993.9    0.00     643    66.3
 303   11:00   63.6    59    4.3   210      7.8   993.9    0.00     359    66.3
 303   11:10   62.7    61    3.5   212      8.0   993.6    0.00     323    66.3
 303   11:20   62.8    66    2.9   207      6.9   993.2    0.00     310    66.4
 303   11:30   62.3    73    3.8   196      8.1   993.2    0.00     240    66.4
 303   11:40   62.5    75    3.7   207      7.0   993.2    0.00     692    66.4
 303   11:50   64.3    67    3.3   221      6.1   992.9    0.00     643    66.5
 303   12:00   64.8    65    3.8   209      6.9   992.9    0.00     457    66.5
 303   12:10   64.9    65    5.6   216     11.8   993.2    0.00     476    66.5
 303   12:20   63.5    69    8.3   242     15.8   993.2    0.00     522    66.6
 303   12:30   64.5    65    4.9   323     13.6   993.2    0.00     613    66.6
 303   12:40   64.8    72    3.0   342      7.9   993.6    0.00     697    66.7
 303   12:50   64.5    73    3.1   317      7.2   993.2    0.00     785    66.7
 303   13:00   65.1    66    5.7   244     13.5   993.2    0.00     486    66.8
 303   13:10   64.8    60    6.3   251     17.3   993.2    0.00     349    66.9
 303   13:20   67.5    49    6.6   244     13.7   992.9    0.00     347    66.9
 303   13:30   66.2    57    4.0   248     11.0   992.9    0.00     398    67.0
 303   13:40   64.9    65    2.7   319      7.3   992.9    0.00     333    67.0
 303   13:50   63.8    69    2.9   285      6.3   992.9    0.00     278    67.1
 303   14:00   62.9    72    3.1    43      8.1   992.9    0.00     230    67.2
 303   14:10   61.3    78    1.8   155      5.4   992.9    0.00     211    67.3
 303   14:20   61.8    78    1.7   342      3.1   992.6    0.00     241    67.4
 303   14:30   62.3    75    3.5     1      7.3   992.6    0.00     271    67.4
 303   14:40   64.8    65    4.0   192      6.9   992.2    0.00     241    67.5
 303   14:50   62.2    75    4.0   185      9.5   992.6    0.00     146    67.6
 303   15:00   60.9    81    2.3   206      4.7   992.6    0.00     210    67.7
 303   15:10   60.3    84    2.4   321      5.8   992.2    0.00     224    67.7
 303   15:20   60.7    84    4.7   227     10.9   992.6    0.00     264    67.8
 303   15:30   59.2    89    6.1   233     15.0   992.6    0.00     247    67.9
 303   15:40   60.7    87    4.1   211      9.8   992.6    0.00     313    67.9
 303   15:50   60.9    85    5.1   225      9.3   992.9    0.00     125    68.0
 303   16:00   59.9    87    3.5   248      9.3   993.2    0.00      67    68.0
 303   16:10   59.4    89    0.9   302      2.7   993.2    0.00      42    68.1
 303   16:20   59.7    88    1.2   215      3.1   992.9    0.00      62    68.2
 303   16:30   60.6    86    2.9   211      6.3   992.6    0.00     102    68.2
 303   16:40   59.8    86    2.1   184      6.2   992.6    0.00      40    68.3
 303   16:50   59.1    88    1.9   222      5.9   992.6    0.00      22    68.3
 303   17:00   58.8    89    2.1   123      4.5   992.2    0.00      25    68.4
 303   17:10   58.7    89    5.2    58      9.4   991.9    0.00      13    68.4
 303   17:20   58.7    88    2.6   206      6.4   991.9    0.00       3    68.4
 303   17:30   58.4    88    1.0   354      3.3   991.9    0.00       0    68.5
 303   17:40   58.2    89    6.9    28     10.2   991.5    0.00       0    68.5
 303   17:50   59.0    86    4.7    76      9.1   991.5    0.00       0    68.5
 303   18:00   59.4    84    1.7   239      6.0   992.2    0.00       0    68.5
 303   18:10   59.1    85    1.6   155      6.4   992.6    0.00       0    68.5
 303   18:20   59.2    85    0.5   209      1.8   992.9    0.00       0    68.6
 303   18:30   59.1    85    1.9    61      5.0   992.9    0.00       0    68.6
 303   18:40   59.1    84    3.6    46      5.8   992.6    0.00       0    68.6
 303   18:50   59.1    84    4.3    60      6.4   992.6    0.00       0    68.6
 303   19:00   59.2    82    1.2   159      2.8   992.6    0.00       0    68.6
 303   19:10   59.0    83    1.0    39      4.1   992.6    0.00       0    68.6
 303   19:20   59.0    82    5.1    62      9.1   991.9    0.00       0    68.5
 303   19:30   59.1    82    2.9   178      7.8   992.2    0.00       0    68.5
 303   19:40   58.5    83    1.4    13      3.6   992.2    0.00       0    68.5
 303   19:50   58.4    84    1.7    20      3.8   992.6    0.00       0    68.5
 303   20:00   58.3    86    4.6    34      7.5   992.6    0.00       0    68.5
 303   20:10   58.3    86    6.8    31     11.0   992.2    0.00       0    68.4
 303   20:20   58.7    83    7.4    69     11.8   991.9    0.00       0    68.4
 303   20:30   59.1    81    2.7   164      7.5   991.9    0.00       0    68.4
 303   20:40   58.7    83    1.4   204      3.9   992.2    0.00       0    68.3
 303   20:50   58.2    86    3.3   202      6.9   992.2    0.00       0    68.3
 303   21:00   58.3    90    5.2   221     10.4   992.6    0.00       0    68.3
 303   21:10   58.3    92    2.5   257      8.3   992.6    0.00       0    68.2
 303   21:20   58.5    92    2.7   253      7.2   992.9    0.00       0    68.2
 303   21:30   58.7    92    1.7   223      7.2   992.9    0.00       0    68.2
 303   21:40   58.7    92    1.7    75      5.6   992.9    0.00       0    68.1
 303   21:50   59.1    90    3.0   272     10.0   992.9    0.00       0    68.1
 303   22:00   59.4    89    3.8   318      9.2   993.2    0.00       0    68.0
 303   22:10   59.6    87    2.4   314      8.3   993.2    0.00       0    68.0
 303   22:20   59.8    86    2.9   347      5.9   992.9    0.00       0    68.0
 303   22:30   60.2    84    2.5     6      5.6   992.9    0.00       0    67.9
 303   22:40   60.4    84    2.6   323      8.2   992.6    0.00       0    67.9
 303   22:50   60.7    82    3.1   108     10.7   992.6    0.00       0    67.9
 303   23:00   61.2    80    3.0   227      7.6   992.6    0.00       0    67.8
 303   23:10   61.2    80    3.5   233     10.0   992.9    0.00       0    67.8
 303   23:20   61.3    80    4.1   248     10.1   992.9    0.00       0    67.7
 303   23:30   61.4    80    2.6   290      8.7   992.9    0.00       0    67.7
 303   23:40   61.3    81    2.3   263      7.7   992.9    0.00       0    67.7
 303   23:50   60.8    83    2.4   227      9.9   992.9    0.00       0    67.7
 304    0:00   60.8    83    2.7   274      8.3   992.6    0.00       0    67.6
 304    0:10   60.7    83    4.9   220     13.3   992.6    0.00       0    67.6
 304    0:20   60.5    84    3.8   234      9.8   992.6    0.00       0    67.6
 304    0:30   60.3    84    4.5   216     11.2   992.6    0.00       0    67.6
 304    0:40   60.1    85    4.1   244     12.3   992.9    0.00       0    67.6
 304    0:50   59.9    86    3.9   222     11.4   992.9    0.00       0    67.5
 304    1:00   59.4    88    2.3   238      7.7   992.9    0.00       0    67.5
 304    1:10   59.1    89    2.1   314      5.8   992.6    0.00       0    67.5
 304    1:20   58.6    88    2.7   340      6.1   992.6    0.00       0    67.4
 304    1:30   58.7    86    2.9   340      5.9   992.6    0.00       0    67.4
 304    1:40   58.7    85    2.5   334      6.5   992.6    0.00       0    67.4
 304    1:50   59.1    83    1.3   234      7.0   992.6    0.00       0    67.4
 304    2:00   59.3    84    1.1   152      3.1   992.2    0.00       0    67.4
 304    2:10   59.1    87    2.2   320      8.0   992.2    0.00       0    67.4
 304    2:20   59.0    88    1.3    16      4.2   992.2    0.00       0    67.3
 304    2:30   58.8    88    2.4    18      6.6   991.9    0.00       0    67.3
 304    2:40   59.0    86    5.4    34      8.7   991.5    0.00       0    67.3
 304    2:50   59.0    85    4.2    68      8.6   991.5    0.00       0    67.3
 304    3:00   58.7    88    2.0   298      4.7   991.9    0.00       0    67.2
 304    3:10   58.2    88    0.5    10      3.4   991.5    0.00       0    67.2
 304    3:20   58.2    88    2.7    33      5.5   991.5    0.00       0    67.2
 304    3:30   58.5    87    5.0    39      7.7   991.5    0.00       0    67.2

Return to Whale Point graphs page.


Western Regional Climate Center,wrcc@dri.edu